Time;durP1;ratioP1;P1;durP2;ratioP2;P2;SDS_P1;SDS_P2;PMS_P1;PMS_P2;Temp;Humidity;BMP_temperature;BMP_pressure;BME280_temperature;BME280_humidity;BME280_pressure;Samples;Min_cycle;Max_cycle;Signal;HPM_P1;HPM_P2
2023/12/22 00:01:22;;;;;;;1.88;0.70;;;;;;;8.61;99.72;96805.97;4206936;28;20203;-88
2023/12/22 00:03:26;;;;;;;2.00;1.02;;;;;;;8.64;99.26;96807.50;4202804;28;20216;-88
2023/12/22 00:05:29;;;;;;;1.40;0.80;;;;;;;8.64;99.19;96786.72;4204961;28;20238;-88
2023/12/22 00:07:32;;;;;;;1.95;1.00;;;;;;;8.66;99.38;96764.03;4184259;28;20769;-87
2023/12/22 00:09:36;;;;;;;2.92;2.03;;;;;;;8.66;98.60;96756.22;4190777;28;20674;-88
2023/12/22 00:11:39;;;;;;;1.45;0.75;;;;;;;8.70;98.55;96776.63;4200167;28;20737;-87
2023/12/22 00:13:42;;;;;;;2.88;1.65;;;;;;;8.62;98.57;96781.66;4218965;28;20243;-87
2023/12/22 00:15:46;;;;;;;2.08;1.02;;;;;;;8.40;99.37;96783.50;4185870;28;20212;-87
2023/12/22 00:17:48;;;;;;;3.03;1.23;;;;;;;8.18;99.56;96817.34;4206079;28;20221;-87
2023/12/22 00:19:52;;;;;;;3.33;1.40;;;;;;;7.90;99.43;96829.16;4202192;28;20200;-88
2023/12/22 00:21:54;;;;;;;2.50;1.00;;;;;;;7.68;99.29;96785.06;4190730;28;20202;-87
2023/12/22 00:23:57;;;;;;;2.58;1.30;;;;;;;7.53;98.66;96801.81;4203124;28;20715;-87
2023/12/22 00:26:02;;;;;;;2.05;0.90;;;;;;;7.36;97.72;96786.72;4210386;28;20222;-87
2023/12/22 00:28:04;;;;;;;2.28;0.60;;;;;;;7.32;98.25;96803.47;4188176;28;20214;-87
2023/12/22 00:30:09;;;;;;;2.78;0.55;;;;;;;7.30;98.80;96833.84;4200028;28;20203;-87
2023/12/22 00:32:12;;;;;;;1.25;0.55;;;;;;;7.35;99.58;96851.66;4184444;28;20293;-87
2023/12/22 00:34:15;;;;;;;1.30;0.50;;;;;;;7.39;99.30;96855.69;4214697;28;20201;-87
2023/12/22 00:36:22;;;;;;;2.00;0.70;;;;;;;7.45;98.91;96870.78;4205799;28;20217;-87
2023/12/22 00:38:26;;;;;;;1.75;0.70;;;;;;;7.47;98.45;96855.94;4204146;28;20216;-87
2023/12/22 00:40:29;;;;;;;2.30;0.80;;;;;;;7.51;99.86;96884.09;4203661;28;20202;-87
2023/12/22 00:42:32;;;;;;;1.30;0.50;;;;;;;7.49;99.60;96880.81;4202763;28;20214;-87
2023/12/22 00:44:35;;;;;;;1.20;0.50;;;;;;;7.38;99.33;96885.16;4197323;28;20240;-87
2023/12/22 00:46:38;;;;;;;1.40;0.50;;;;;;;7.39;98.67;96902.38;4215775;28;20212;-87
2023/12/22 00:48:42;;;;;;;1.20;0.60;;;;;;;7.41;98.88;96914.25;4202252;28;20573;-87
2023/12/22 00:50:44;;;;;;;1.52;0.50;;;;;;;7.41;98.41;96893.50;4191816;28;20336;-88
2023/12/22 00:52:47;;;;;;;1.38;0.40;;;;;;;7.41;98.85;96872.75;4198364;28;20287;-87
2023/12/22 00:54:50;;;;;;;1.30;0.60;;;;;;;7.42;99.13;96882.22;4198863;28;20201;-88
2023/12/22 00:56:52;;;;;;;1.92;0.50;;;;;;;7.36;98.11;96874.88;4189241;28;20211;-88
2023/12/22 00:58:57;;;;;;;1.00;0.40;;;;;;;7.36;99.00;96890.44;4201724;28;20274;-88
2023/12/22 01:01:13;;;;;;;1.00;0.43;;;;;;;7.40;99.19;96885.88;4185468;28;20198;-87
2023/12/22 01:03:16;;;;;;;1.00;0.40;;;;;;;7.40;99.22;96889.28;4201150;28;20201;-87
2023/12/22 01:05:19;;;;;;;2.38;0.50;;;;;;;7.41;100.00;96877.94;4186916;28;20208;-87
2023/12/22 01:07:23;;;;;;;1.00;0.50;;;;;;;7.43;100.00;96872.66;4202717;28;20250;-87
2023/12/22 01:09:28;;;;;;;1.30;0.50;;;;;;;7.44;99.39;96869.13;4215841;28;20232;-88
2023/12/22 01:11:31;;;;;;;1.45;0.55;;;;;;;7.46;100.00;96864.63;4201576;28;20244;-87
2023/12/22 01:13:34;;;;;;;1.48;0.60;;;;;;;7.46;99.73;96862.88;4204683;28;20252;-88
2023/12/22 01:15:39;;;;;;;1.50;0.60;;;;;;;7.48;98.72;96873.97;4203489;28;20205;-88
2023/12/22 01:17:42;;;;;;;1.30;0.60;;;;;;;7.51;99.63;96858.16;4187468;28;20239;-88
2023/12/22 01:19:46;;;;;;;1.40;0.60;;;;;;;7.54;98.88;96870.91;4202594;28;21385;-88
2023/12/22 01:21:49;;;;;;;1.58;0.60;;;;;;;7.55;98.54;96865.59;4209286;28;20289;-87
2023/12/22 01:23:55;;;;;;;1.35;0.60;;;;;;;7.58;99.01;96854.19;4202554;28;20202;-88
2023/12/22 01:25:58;;;;;;;2.10;0.60;;;;;;;7.61;99.43;96861.72;4204324;28;20307;-88
2023/12/22 01:28:01;;;;;;;2.17;0.60;;;;;;;7.63;98.89;96865.84;4200459;28;20201;-88
2023/12/22 01:30:09;;;;;;;1.38;0.68;;;;;;;7.67;98.37;96859.47;4188810;28;20212;-87
2023/12/22 01:32:13;;;;;;;1.40;0.68;;;;;;;7.68;98.39;96857.69;4193647;28;20277;-88
2023/12/22 01:34:16;;;;;;;2.08;0.60;;;;;;;7.67;99.63;96861.25;4201378;28;20205;-87
2023/12/22 01:36:20;;;;;;;1.30;0.50;;;;;;;7.72;99.51;96890.25;4182870;28;20213;-88
2023/12/22 01:38:23;;;;;;;1.30;0.60;;;;;;;7.70;97.99;96884.38;4201250;28;20702;-88
2023/12/22 01:40:26;;;;;;;1.48;0.60;;;;;;;7.69;99.61;96867.97;4203306;28;20232;-88
2023/12/22 01:42:28;;;;;;;1.85;0.70;;;;;;;7.71;98.42;96867.84;4192356;28;20234;-87
2023/12/22 01:44:31;;;;;;;1.85;0.90;;;;;;;7.67;99.66;96872.47;4204380;28;20300;-88
2023/12/22 01:46:35;;;;;;;2.65;0.82;;;;;;;7.68;99.99;96865.50;4189505;28;20206;-88
2023/12/22 01:48:40;;;;;;;1.60;0.73;;;;;;;7.69;100.00;96861.97;4202684;28;20205;-88
2023/12/22 01:50:44;;;;;;;2.17;0.70;;;;;;;7.72;98.98;96853.94;4191767;28;20210;-88
2023/12/22 01:52:47;;;;;;;2.20;0.68;;;;;;;7.73;100.00;96850.41;4199648;28;20230;-88
2023/12/22 01:54:51;;;;;;;1.92;0.70;;;;;;;7.77;100.00;96849.22;4201757;28;20231;-88
2023/12/22 01:56:55;;;;;;;1.40;0.75;;;;;;;7.79;99.53;96852.53;4196383;28;20208;-88
2023/12/22 01:59:00;;;;;;;1.95;1.00;;;;;;;7.79;98.77;96853.34;4189423;28;20237;-88
2023/12/22 02:01:04;;;;;;;1.20;0.70;;;;;;;7.83;99.22;96874.69;4192116;28;20205;-88
2023/12/22 02:03:07;;;;;;;1.30;0.70;;;;;;;7.85;99.04;96852.03;4206610;28;20212;-88
2023/12/22 02:05:12;;;;;;;1.75;0.75;;;;;;;7.86;99.04;96856.28;4191208;28;20197;-88
2023/12/22 02:07:15;;;;;;;2.25;1.10;;;;;;;7.87;98.85;96861.38;4186031;28;20210;-88
2023/12/22 02:09:19;;;;;;;1.60;0.60;;;;;;;7.88;98.45;96851.81;4202473;28;20260;-88
2023/12/22 02:11:22;;;;;;;1.77;0.52;;;;;;;7.89;99.94;96853.47;4183312;28;20202;-88
2023/12/22 02:13:25;;;;;;;2.80;0.65;;;;;;;7.89;98.21;96861.25;4198190;28;20705;-88
2023/12/22 02:15:28;;;;;;;1.42;0.70;;;;;;;7.87;99.77;96852.75;4189194;28;20210;-88
2023/12/22 02:17:39;;;;;;;3.35;0.90;;;;;;;7.78;98.93;96890.63;4203738;28;20719;-88
2023/12/22 02:19:44;;;;;;;1.30;0.75;;;;;;;7.69;98.41;96899.09;4217037;28;20301;-86
2023/12/22 02:22:02;;;;;;;2.55;0.75;;;;;;;7.64;99.95;96864.09;4203817;28;20207;-86
2023/12/22 02:24:12;;;;;;;2.15;0.77;;;;;;;7.64;99.62;96845.94;4190329;28;20198;-86
2023/12/22 02:26:21;;;;;;;4.68;1.50;;;;;;;7.65;99.83;96844.97;4203820;28;20201;-86
2023/12/22 02:28:25;;;;;;;1.80;1.10;;;;;;;7.70;100.00;96858.44;4189683;28;20297;-86
2023/12/22 02:30:33;;;;;;;3.05;1.20;;;;;;;7.75;99.99;96879.66;4204589;28;20938;-86
2023/12/22 02:32:39;;;;;;;3.15;1.15;;;;;;;7.69;100.00;96893.09;4200104;28;20874;-86
2023/12/22 02:34:43;;;;;;;3.35;1.20;;;;;;;7.70;100.00;96881.78;4200489;28;20715;-86
2023/12/22 02:36:47;;;;;;;2.25;1.10;;;;;;;7.74;100.00;96870.22;4197684;28;20285;-86
2023/12/22 02:38:53;;;;;;;2.55;1.30;;;;;;;7.76;100.00;96858.78;4188304;28;20211;-86
2023/12/22 02:40:58;;;;;;;3.85;1.42;;;;;;;7.77;100.00;96850.06;4202555;28;20250;-86
2023/12/22 02:43:02;;;;;;;4.72;1.40;;;;;;;7.76;100.00;96845.81;4203000;28;20206;-87
2023/12/22 02:45:06;;;;;;;3.47;1.40;;;;;;;7.79;100.00;96835.19;4198353;28;20360;-86
2023/12/22 02:47:10;;;;;;;6.82;1.50;;;;;;;7.83;100.00;96838.38;4183653;28;20202;-87
2023/12/22 02:49:14;;;;;;;2.10;1.10;;;;;;;7.85;100.00;96852.03;4196834;28;20661;-86
2023/12/22 02:51:17;;;;;;;2.45;1.20;;;;;;;7.86;100.00;96838.13;4197165;28;20207;-86
2023/12/22 02:53:20;;;;;;;2.92;1.30;;;;;;;7.89;100.00;96843.09;4198617;28;20226;-86
2023/12/22 02:55:22;;;;;;;3.15;1.23;;;;;;;7.89;100.00;96845.69;4189529;28;20604;-86
2023/12/22 02:57:27;;;;;;;5.20;1.50;;;;;;;7.89;100.00;96843.09;4187967;28;20290;-86
2023/12/22 02:59:29;;;;;;;2.35;1.13;;;;;;;7.97;100.00;96844.97;4198109;28;20221;-86
2023/12/22 03:01:32;;;;;;;5.57;1.20;;;;;;;8.00;100.00;96856.88;4199254;28;20205;-86
2023/12/22 03:03:35;;;;;;;6.40;1.33;;;;;;;8.03;99.50;96844.47;4197156;28;20247;-86
2023/12/22 03:05:38;;;;;;;2.85;1.35;;;;;;;8.11;98.85;96851.69;4202457;28;20205;-86
2023/12/22 03:07:41;;;;;;;3.63;0.90;;;;;;;8.16;98.42;96855.59;4197282;28;20638;-86
2023/12/22 03:09:44;;;;;;;5.82;1.10;;;;;;;8.19;99.67;96844.13;4201275;28;20292;-86
2023/12/22 03:11:46;;;;;;;3.25;1.05;;;;;;;8.22;98.88;96834.31;4204196;28;20200;-86
2023/12/22 03:13:51;;;;;;;5.60;1.10;;;;;;;8.26;99.13;96834.94;4203995;28;20223;-86
2023/12/22 03:15:54;;;;;;;3.85;1.27;;;;;;;8.27;99.86;96832.19;4187491;28;20255;-86
2023/12/22 03:17:56;;;;;;;5.20;1.23;;;;;;;8.25;100.00;96820.28;4199271;28;20740;-86
2023/12/22 03:20:00;;;;;;;3.70;1.73;;;;;;;8.29;99.51;96825.09;4205026;28;20224;-86
2023/12/22 03:22:03;;;;;;;3.22;1.58;;;;;;;8.31;98.50;96820.59;4189673;28;20209;-86
2023/12/22 03:24:07;;;;;;;2.40;0.90;;;;;;;8.32;99.63;96822.25;4204107;28;20304;-86
2023/12/22 03:26:09;;;;;;;4.57;1.25;;;;;;;8.37;98.74;96811.50;4202265;28;20290;-86
2023/12/22 03:28:12;;;;;;;5.07;1.10;;;;;;;8.39;99.24;96817.41;4203002;28;24310;-87
2023/12/22 03:30:17;;;;;;;2.85;1.25;;;;;;;8.38;99.54;96826.97;4188655;28;20612;-88
2023/12/22 03:32:20;;;;;;;3.08;1.25;;;;;;;8.39;98.27;96828.63;4201410;28;20310;-88
2023/12/22 03:34:23;;;;;;;3.97;1.33;;;;;;;8.45;98.70;96823.75;4199571;28;20195;-88
2023/12/22 03:36:27;;;;;;;3.38;1.05;;;;;;;8.41;97.66;96825.91;4187643;28;20755;-88
2023/12/22 03:38:30;;;;;;;6.97;1.45;;;;;;;8.44;98.32;96848.06;4205620;28;20304;-91
2023/12/22 03:40:33;;;;;;;3.38;1.20;;;;;;;8.44;96.53;96857.66;4201283;28;20342;-88
2023/12/22 03:42:37;;;;;;;3.85;1.00;;;;;;;8.48;97.23;96851.28;4203007;28;20213;-86
2023/12/22 03:44:40;;;;;;;7.93;1.65;;;;;;;8.48;97.08;96849.50;4201899;28;20204;-86
2023/12/22 03:46:44;;;;;;;6.15;1.38;;;;;;;8.49;96.20;96850.31;4187688;28;20946;-88
2023/12/22 03:48:48;;;;;;;3.03;1.30;;;;;;;8.53;96.69;96847.34;4190431;28;20206;-87
2023/12/22 03:50:50;;;;;;;7.43;1.10;;;;;;;8.54;95.80;96849.00;4201540;28;20258;-89
2023/12/22 03:52:53;;;;;;;6.05;1.60;;;;;;;8.57;94.81;96819.38;4183782;28;20227;-89
2023/12/22 03:54:56;;;;;;;2.95;1.13;;;;;;;8.56;95.11;96844.50;4201981;28;20797;-88
2023/12/22 03:57:00;;;;;;;5.50;1.90;;;;;;;8.62;94.88;96840.59;4190915;28;20195;-88
2023/12/22 03:59:03;;;;;;;3.22;1.40;;;;;;;8.63;94.80;96857.81;4205963;28;20213;-88
2023/12/22 04:01:07;;;;;;;4.40;1.38;;;;;;;8.67;94.21;96848.84;4202540;28;20290;-88
2023/12/22 04:03:12;;;;;;;4.47;1.48;;;;;;;8.70;94.03;96849.41;4204260;28;20252;-88
2023/12/22 04:05:15;;;;;;;4.93;1.52;;;;;;;8.70;93.94;96849.41;4197849;28;20223;-88
2023/12/22 04:07:18;;;;;;;4.10;1.20;;;;;;;8.69;92.79;96845.19;4187966;28;20673;-88
2023/12/22 04:09:20;;;;;;;4.68;1.38;;;;;;;8.70;92.60;96854.59;4202702;28;20665;-88
2023/12/22 04:11:23;;;;;;;6.93;1.33;;;;;;;8.72;93.07;96863.13;4205797;28;20223;-87
2023/12/22 04:13:26;;;;;;;3.58;1.50;;;;;;;8.71;93.07;96876.25;4208402;28;20626;-87
2023/12/22 04:15:29;;;;;;;4.18;1.33;;;;;;;8.75;92.00;96869.84;4199034;28;20202;-87
2023/12/22 04:17:32;;;;;;;4.35;1.30;;;;;;;8.77;93.03;96875.75;4201939;28;20200;-87
2023/12/22 04:19:37;;;;;;;4.60;1.23;;;;;;;8.78;91.79;96875.63;4197361;28;20343;-88
2023/12/22 04:21:40;;;;;;;5.72;1.40;;;;;;;8.84;93.29;96890.72;4190992;28;20225;-87
2023/12/22 04:23:42;;;;;;;4.47;1.30;;;;;;;8.81;93.66;96897.94;4201284;28;20203;-87
2023/12/22 04:25:45;;;;;;;3.30;1.20;;;;;;;8.81;95.84;96882.34;4201216;28;20223;-88
2023/12/22 04:27:49;;;;;;;6.30;1.50;;;;;;;8.76;95.56;96894.88;4190034;28;20212;-87
2023/12/22 04:29:51;;;;;;;3.13;1.10;;;;;;;8.71;95.64;96868.44;4189607;28;20190;-87
2023/12/22 04:31:54;;;;;;;5.03;1.20;;;;;;;8.66;97.19;96867.97;4206029;28;20344;-87
2023/12/22 04:34:00;;;;;;;5.18;1.38;;;;;;;8.63;97.29;96886.41;4208851;28;20205;-87
2023/12/22 04:36:05;;;;;;;3.40;1.00;;;;;;;8.60;97.83;96889.25;4203020;28;20206;-87
2023/12/22 04:38:08;;;;;;;3.22;1.20;;;;;;;8.54;98.13;96890.56;4201975;28;20215;-87
2023/12/22 04:40:11;;;;;;;1.75;1.00;;;;;;;8.56;97.95;96887.84;4201946;28;20202;-87
2023/12/22 04:42:15;;;;;;;4.40;0.80;;;;;;;8.51;96.22;96900.41;4207946;28;20204;-87
2023/12/22 04:44:18;;;;;;;6.70;1.20;;;;;;;8.49;96.11;96913.50;4206642;28;20271;-88
2023/12/22 04:46:21;;;;;;;2.80;1.20;;;;;;;8.49;95.99;96912.66;4203664;28;20228;-88
2023/12/22 04:48:25;;;;;;;2.65;0.80;;;;;;;8.50;95.39;96911.72;4201400;28;20249;-87
2023/12/22 04:50:27;;;;;;;6.07;0.90;;;;;;;8.48;95.97;96918.81;4202375;28;20201;-87
2023/12/22 04:52:31;;;;;;;3.47;0.77;;;;;;;8.44;96.89;96915.63;4202893;28;20239;-87
2023/12/22 04:54:35;;;;;;;2.42;0.90;;;;;;;8.44;96.55;96912.22;4198608;28;20204;-87
2023/12/22 04:56:38;;;;;;;2.60;0.75;;;;;;;8.41;96.47;96902.06;4192645;28;20237;-87
2023/12/22 04:58:41;;;;;;;2.60;0.80;;;;;;;8.39;98.00;96895.31;4209164;28;20224;-87
2023/12/22 05:00:44;;;;;;;3.45;1.00;;;;;;;8.34;97.11;96898.28;4205640;28;20226;-87
2023/12/22 05:02:47;;;;;;;5.22;1.25;;;;;;;8.30;97.62;96886.50;4200865;28;20210;-87
2023/12/22 05:04:51;;;;;;;1.95;1.02;;;;;;;8.33;97.21;96891.47;4191940;28;20259;-87
2023/12/22 05:06:53;;;;;;;4.10;0.88;;;;;;;8.36;97.34;96895.56;4203544;28;20217;-87
2023/12/22 05:08:58;;;;;;;6.13;1.65;;;;;;;8.36;97.02;96891.22;4190271;28;20696;-88
2023/12/22 05:11:01;;;;;;;4.32;1.15;;;;;;;8.39;97.03;96892.72;4214598;28;20346;-87
2023/12/22 05:13:04;;;;;;;5.22;1.50;;;;;;;8.44;96.58;96899.22;4206736;28;20295;-87
2023/12/22 05:15:08;;;;;;;4.47;1.60;;;;;;;8.44;97.06;96898.41;4204873;28;20225;-87
2023/12/22 05:17:11;;;;;;;4.05;1.27;;;;;;;8.50;96.63;96903.94;4186611;28;20240;-87
2023/12/22 05:19:15;;;;;;;3.97;1.20;;;;;;;8.47;97.69;96915.38;4189431;28;20309;-88
2023/12/22 05:21:18;;;;;;;5.32;1.80;;;;;;;8.48;96.21;96916.22;4202108;28;20228;-88
2023/12/22 05:23:21;;;;;;;5.10;1.52;;;;;;;8.46;96.34;96908.56;4190563;28;20205;-88
2023/12/22 05:25:25;;;;;;;2.95;1.33;;;;;;;8.50;96.94;96920.34;4206228;28;20229;-88
2023/12/22 05:27:28;;;;;;;3.42;1.33;;;;;;;8.52;96.76;96915.03;4197935;28;20265;-87
2023/12/22 05:29:31;;;;;;;6.88;2.10;;;;;;;8.49;97.71;96920.47;4192814;28;20193;-88
2023/12/22 05:31:34;;;;;;;7.05;1.30;;;;;;;8.53;97.40;96924.47;4202456;28;20200;-88
2023/12/22 05:33:37;;;;;;;3.00;1.23;;;;;;;8.55;96.34;96914.78;4205257;28;20204;-87
2023/12/22 05:35:41;;;;;;;4.90;1.40;;;;;;;8.58;97.68;96927.53;4209064;28;20693;-87
2023/12/22 05:37:44;;;;;;;4.20;1.27;;;;;;;8.59;97.32;96916.19;4188558;28;20209;-88
2023/12/22 05:39:46;;;;;;;6.43;1.25;;;;;;;8.56;97.50;96914.66;4206572;28;20763;-88
2023/12/22 05:41:51;;;;;;;7.18;1.65;;;;;;;8.57;97.99;96931.09;4187734;28;20253;-88
2023/12/22 05:43:54;;;;;;;8.98;1.95;;;;;;;8.60;97.60;96923.03;4185322;28;20213;-88
2023/12/22 05:45:57;;;;;;;6.85;1.50;;;;;;;8.54;96.89;96933.94;4186196;28;20276;-89
2023/12/22 05:48:00;;;;;;;6.15;1.70;;;;;;;8.55;96.81;96926.03;4204382;28;20226;-88
2023/12/22 05:50:04;;;;;;;6.43;1.40;;;;;;;8.51;96.32;96931.56;4205441;28;20204;-87
2023/12/22 05:52:09;;;;;;;3.55;1.55;;;;;;;8.40;95.81;96954.13;4204184;28;20201;-88
2023/12/22 05:54:12;;;;;;;3.25;1.10;;;;;;;8.05;97.04;96945.63;4203867;28;20210;-87
2023/12/22 05:56:19;;;;;;;7.22;1.15;;;;;;;7.69;98.66;96930.22;4192449;28;20208;-88
2023/12/22 05:58:24;;;;;;;3.05;0.98;;;;;;;7.51;99.19;96943.75;4206366;28;20197;-88
2023/12/22 06:00:27;;;;;;;5.45;0.98;;;;;;;7.63;100.00;96925.50;4189893;28;20200;-87
2023/12/22 06:02:29;;;;;;;3.13;1.08;;;;;;;7.50;100.00;96936.91;4218209;28;20224;-88
2023/12/22 06:04:33;;;;;;;9.65;1.40;;;;;;;7.40;100.00;96923.00;4201920;28;20198;-88
2023/12/22 06:06:36;;;;;;;2.85;0.90;;;;;;;7.37;100.00;96932.78;4186655;28;20204;-88
2023/12/22 06:08:40;;;;;;;4.07;1.10;;;;;;;7.40;100.00;96943.75;4201365;28;20212;-88
2023/12/22 06:10:43;;;;;;;2.55;1.00;;;;;;;7.40;100.00;96945.53;4203060;28;20649;-87
2023/12/22 06:12:47;;;;;;;1.60;0.88;;;;;;;7.38;100.00;96971.56;4188624;28;20223;-88
2023/12/22 06:14:51;;;;;;;4.10;1.20;;;;;;;7.37;100.00;96938.78;4198962;28;20838;-87
2023/12/22 06:16:56;;;;;;;3.92;1.45;;;;;;;7.38;100.00;96950.81;4200010;28;20212;-88
2023/12/22 06:18:58;;;;;;;4.85;1.17;;;;;;;7.47;100.00;96963.06;4204729;28;20202;-87
2023/12/22 06:21:02;;;;;;;6.97;1.52;;;;;;;7.51;100.00;96951.53;4206532;28;20636;-87
2023/12/22 06:23:05;;;;;;;6.10;1.80;;;;;;;7.54;100.00;96972.06;4187081;28;20232;-87
2023/12/22 06:25:09;;;;;;;8.38;1.88;;;;;;;7.61;100.00;96989.66;4204494;28;20255;-88
2023/12/22 06:27:12;;;;;;;5.82;1.42;;;;;;;7.68;100.00;97010.78;4202111;28;20221;-88
2023/12/22 06:29:16;;;;;;;5.32;1.85;;;;;;;7.80;100.00;97015.06;4207170;28;20211;-87
2023/12/22 06:31:22;;;;;;;6.28;1.60;;;;;;;7.83;100.00;97020.84;4201716;28;20197;-87
2023/12/22 06:33:25;;;;;;;4.70;1.42;;;;;;;7.90;100.00;97013.44;4199107;28;20201;-88
2023/12/22 06:35:29;;;;;;;5.75;1.80;;;;;;;7.93;100.00;97015.81;4203880;28;20218;-88
2023/12/22 06:37:31;;;;;;;9.52;3.60;;;;;;;7.95;100.00;97029.50;4200474;28;20219;-88
2023/12/22 06:39:34;;;;;;;7.32;1.70;;;;;;;7.99;100.00;97006.59;4192314;28;20212;-88
2023/12/22 06:41:37;;;;;;;4.65;2.00;;;;;;;8.05;100.00;97026.91;4192144;28;20208;-88
2023/12/22 06:43:39;;;;;;;6.55;2.30;;;;;;;8.09;100.00;97028.34;4199563;28;20197;-88
2023/12/22 06:45:43;;;;;;;5.93;2.20;;;;;;;8.13;100.00;97034.16;4188103;28;20256;-88
2023/12/22 06:47:47;;;;;;;11.35;2.30;;;;;;;8.14;100.00;97026.25;4202156;28;20206;-88
2023/12/22 06:49:51;;;;;;;9.77;2.00;;;;;;;8.19;100.00;97029.31;4201130;28;20238;-88
2023/12/22 06:51:54;;;;;;;10.80;2.13;;;;;;;8.27;100.00;97028.72;4207082;28;20196;-88
2023/12/22 06:53:59;;;;;;;5.50;2.10;;;;;;;8.34;100.00;97019.53;4185919;28;20230;-88
2023/12/22 06:56:15;;;;;;;14.75;2.60;;;;;;;8.37;99.33;97034.88;4200367;28;20239;-88
2023/12/22 06:58:21;;;;;;;11.05;2.22;;;;;;;8.43;99.76;97052.59;4204626;28;20254;-88
2023/12/22 07:00:24;;;;;;;8.32;2.40;;;;;;;8.45;99.78;97051.56;4205642;28;20275;-88
2023/12/22 07:02:28;;;;;;;6.93;1.90;;;;;;;8.51;98.40;97053.69;4196711;28;20272;-88
2023/12/22 07:04:33;;;;;;;10.63;2.35;;;;;;;8.52;98.82;97047.53;4201531;28;20201;-88
2023/12/22 07:06:37;;;;;;;5.47;1.70;;;;;;;8.53;98.28;97041.41;4204830;28;20291;-88
2023/12/22 07:08:39;;;;;;;5.82;2.13;;;;;;;8.53;98.47;97054.38;4206089;28;20209;-88
2023/12/22 07:10:42;;;;;;;6.40;2.00;;;;;;;8.54;98.38;97045.66;4188881;28;20325;-88
2023/12/22 07:12:44;;;;;;;8.05;1.80;;;;;;;8.60;98.03;97072.00;4201247;28;20250;-88
2023/12/22 07:14:48;;;;;;;7.80;2.17;;;;;;;8.58;97.28;97068.66;4189613;28;20292;-88
2023/12/22 07:16:51;;;;;;;8.15;2.20;;;;;;;8.60;97.49;97073.75;4192624;28;20576;-88
2023/12/22 07:18:54;;;;;;;6.20;2.05;;;;;;;8.65;97.11;97069.03;4192716;28;20255;-88
2023/12/22 07:20:59;;;;;;;5.40;1.95;;;;;;;8.67;95.21;97061.94;4194940;28;20202;-88
2023/12/22 07:23:03;;;;;;;11.18;1.80;;;;;;;8.64;95.19;97055.19;4200467;28;20275;-88
2023/12/22 07:25:08;;;;;;;8.55;1.60;;;;;;;8.66;95.38;97055.94;4191075;28;20615;-88
2023/12/22 07:27:11;;;;;;;6.47;1.92;;;;;;;8.67;95.13;97065.34;4191305;28;20209;-88
2023/12/22 07:29:15;;;;;;;4.63;1.70;;;;;;;8.67;94.79;97072.34;4186178;28;20211;-88
2023/12/22 07:31:18;;;;;;;6.07;1.73;;;;;;;8.71;94.23;97068.56;4192272;28;20232;-88
2023/12/22 07:33:21;;;;;;;7.45;2.20;;;;;;;8.72;95.37;97067.59;4190878;28;20209;-88
2023/12/22 07:35:25;;;;;;;12.43;2.30;;;;;;;8.72;95.06;97054.59;4189977;28;20237;-88
2023/12/22 07:37:29;;;;;;;8.25;2.00;;;;;;;8.70;94.43;97066.91;4202276;28;20224;-88
2023/12/22 07:39:33;;;;;;;7.18;2.65;;;;;;;8.71;95.55;97050.38;4198761;28;20254;-88
2023/12/22 07:41:39;;;;;;;11.52;2.20;;;;;;;8.71;94.67;97068.56;4214419;28;20627;-88
2023/12/22 07:43:43;;;;;;;6.10;2.20;;;;;;;8.73;95.21;97077.06;4203042;28;20225;-88
2023/12/22 07:45:47;;;;;;;10.25;2.40;;;;;;;8.73;96.01;97087.47;4187657;28;20292;-88
2023/12/22 07:47:50;;;;;;;8.23;2.10;;;;;;;8.77;95.11;97091.50;4208254;28;20205;-88
2023/12/22 07:49:54;;;;;;;7.68;1.90;;;;;;;8.78;96.54;97095.72;4188399;28;20213;-88
2023/12/22 07:51:58;;;;;;;6.82;2.10;;;;;;;8.81;95.99;97108.47;4195862;28;20212;-87
2023/12/22 07:54:03;;;;;;;8.40;3.33;;;;;;;8.83;96.10;97101.41;4188074;28;20207;-88
2023/12/22 07:56:10;;;;;;;11.35;1.90;;;;;;;8.82;96.46;97100.56;4205578;28;20299;-88
2023/12/22 07:58:15;;;;;;;7.28;2.05;;;;;;;8.85;95.62;97089.94;4189224;28;20243;-88
2023/12/22 08:00:18;;;;;;;6.25;2.10;;;;;;;8.89;95.92;97093.13;4204822;28;20208;-88
2023/12/22 08:02:20;;;;;;;6.35;2.30;;;;;;;8.89;95.60;97090.53;4192256;28;20201;-88
2023/12/22 08:04:24;;;;;;;7.80;2.05;;;;;;;8.87;95.79;97110.59;4199721;28;20207;-88
2023/12/22 08:06:27;;;;;;;9.85;1.90;;;;;;;8.86;95.70;97114.16;4197751;28;20205;-88
2023/12/22 08:08:30;;;;;;;6.18;1.83;;;;;;;8.89;95.75;97108.75;4206698;28;20216;-88
2023/12/22 08:10:36;;;;;;;7.05;2.33;;;;;;;8.92;95.86;97098.91;4200979;28;20542;-85
2023/12/22 08:12:38;;;;;;;7.80;2.00;;;;;;;8.91;95.91;97128.44;4201851;28;20705;-86
2023/12/22 08:14:41;;;;;;;8.75;2.15;;;;;;;8.92;95.82;97124.91;4188366;28;20201;-86
2023/12/22 08:16:44;;;;;;;5.38;1.48;;;;;;;8.94;95.75;97138.63;4189311;28;24299;-86
2023/12/22 08:18:47;;;;;;;6.20;1.83;;;;;;;8.93;96.42;97137.81;4200748;28;20693;-85
2023/12/22 08:20:51;;;;;;;11.52;1.95;;;;;;;8.94;96.75;97142.06;4185124;28;20682;-87
2023/12/22 08:22:54;;;;;;;11.25;2.35;;;;;;;8.95;96.55;97138.50;4198979;28;20226;-87
2023/12/22 08:24:58;;;;;;;5.25;1.80;;;;;;;8.95;97.50;97138.50;4198404;28;20200;-86
2023/12/22 08:27:02;;;;;;;6.50;1.85;;;;;;;8.93;98.78;97152.59;4186650;28;20229;-86
2023/12/22 08:29:08;;;;;;;7.15;2.13;;;;;;;8.91;99.20;97141.44;4187927;28;20224;-87
2023/12/22 08:31:13;;;;;;;5.18;1.70;;;;;;;8.91;100.00;97140.63;4197927;28;20609;-87
2023/12/22 08:33:17;;;;;;;5.78;1.75;;;;;;;8.83;100.00;97143.00;4203542;28;20235;-88
2023/12/22 08:35:20;;;;;;;6.22;1.60;;;;;;;8.80;100.00;97145.84;4189871;28;20290;-87
2023/12/22 08:37:24;;;;;;;6.38;1.60;;;;;;;8.79;100.00;97141.56;4202979;28;20224;-86
2023/12/22 08:39:27;;;;;;;5.10;1.83;;;;;;;8.81;100.00;97148.31;4190748;28;20710;-88
2023/12/22 08:41:35;;;;;;;4.88;1.98;;;;;;;8.81;100.00;97134.47;4188553;28;20662;-88
2023/12/22 08:43:42;;;;;;;11.82;2.20;;;;;;;8.84;100.00;97136.84;4201087;28;20228;-87
2023/12/22 08:45:44;;;;;;;8.23;1.92;;;;;;;8.81;100.00;97131.88;4202822;28;20696;-87
2023/12/22 08:47:48;;;;;;;11.40;2.03;;;;;;;8.82;100.00;97136.13;4189643;28;20929;-87
2023/12/22 08:49:51;;;;;;;6.20;1.80;;;;;;;8.81;100.00;97155.28;4184636;28;20204;-88
2023/12/22 08:51:55;;;;;;;7.47;1.95;;;;;;;8.78;100.00;97152.91;4205929;28;20254;-88
2023/12/22 08:53:59;;;;;;;6.23;1.50;;;;;;;8.80;100.00;97164.03;4203576;28;20201;-86
2023/12/22 08:56:02;;;;;;;7.93;2.28;;;;;;;8.79;100.00;97155.38;4188825;28;20720;-85
2023/12/22 08:58:06;;;;;;;7.68;2.05;;;;;;;8.77;100.00;97159.88;4202405;28;20199;-83
2023/12/22 09:00:12;;;;;;;7.55;2.30;;;;;;;8.80;100.00;97153.63;4211183;28;20231;-85
2023/12/22 09:02:15;;;;;;;4.57;2.28;;;;;;;8.78;100.00;97155.50;4226373;28;20576;-86
2023/12/22 09:04:22;;;;;;;5.50;2.22;;;;;;;8.80;100.00;97151.03;4191671;28;20252;-85
2023/12/22 09:06:25;;;;;;;8.80;2.53;;;;;;;8.80;100.00;97156.22;4202965;28;20242;-87
2023/12/22 09:08:28;;;;;;;8.50;2.60;;;;;;;8.78;100.00;97152.91;4207684;28;20232;-83
2023/12/22 09:10:32;;;;;;;7.60;2.50;;;;;;;8.75;100.00;97150.53;4191819;28;20198;-84
2023/12/22 09:12:35;;;;;;;11.77;2.88;;;;;;;8.69;100.00;97148.41;4202332;28;20227;-82
2023/12/22 09:14:38;;;;;;;10.25;3.97;;;;;;;8.72;100.00;97158.56;4200858;28;20235;-85
2023/12/22 09:16:45;;;;;;;7.35;2.58;;;;;;;8.74;100.00;97154.91;4191151;28;20233;-84
2023/12/22 09:18:49;;;;;;;9.00;4.47;;;;;;;8.75;100.00;97161.78;4205553;28;20210;-84
2023/12/22 09:20:54;;;;;;;13.05;4.10;;;;;;;8.77;100.00;97148.66;4217415;28;20655;-87
2023/12/22 09:22:57;;;;;;;14.18;3.75;;;;;;;8.80;100.00;97141.44;4192421;28;20220;-87
2023/12/22 09:25:00;;;;;;;7.72;2.20;;;;;;;8.81;100.00;97150.06;4203931;28;20255;-87
2023/12/22 09:27:04;;;;;;;7.78;2.22;;;;;;;8.81;100.00;97160.47;4197027;28;20727;-87
2023/12/22 09:29:07;;;;;;;14.38;2.10;;;;;;;8.79;100.00;97159.78;4194661;28;20261;-86
2023/12/22 09:31:12;;;;;;;9.20;2.20;;;;;;;8.82;100.00;97172.53;4191946;28;20208;-87
2023/12/22 09:33:17;;;;;;;9.00;2.58;;;;;;;8.82;100.00;97180.34;4216056;27;20699;-87
2023/12/22 09:35:21;;;;;;;6.88;2.10;;;;;;;8.77;100.00;97182.47;4203853;28;20210;-87
2023/12/22 09:37:25;;;;;;;11.98;2.72;;;;;;;8.77;100.00;97188.47;4202524;28;21808;-85
2023/12/22 09:39:28;;;;;;;8.27;2.55;;;;;;;8.79;100.00;97180.56;4205451;28;20209;-85
2023/12/22 09:41:32;;;;;;;9.07;2.35;;;;;;;8.82;100.00;97198.53;4203426;28;20295;-85
2023/12/22 09:43:36;;;;;;;7.97;2.20;;;;;;;8.84;100.00;97201.81;4200509;28;20228;-85
2023/12/22 09:45:40;;;;;;;13.45;3.20;;;;;;;8.84;100.00;97199.22;4202081;28;20210;-85
2023/12/22 09:47:45;;;;;;;8.70;2.30;;;;;;;8.82;100.00;97195.94;4185897;28;20223;-84